地図

経路データ

SID SEASON NUMBER BASIN SUBBASIN NAME ISO_TIME NATURE LAT LON WMO_WIND WMO_PRES WMO_AGENCY TRACK_TYPE DIST2LAND LANDFALL IFLAG USA_AGENCY USA_ATCF_ID USA_LAT USA_LON USA_RECORD USA_STATUS USA_WIND USA_PRES USA_SSHS USA_R34_NE USA_R34_SE USA_R34_SW USA_R34_NW USA_R50_NE USA_R50_SE USA_R50_SW USA_R50_NW USA_R64_NE USA_R64_SE USA_R64_SW USA_R64_NW USA_POCI USA_ROCI USA_RMW USA_EYE TOKYO_LAT TOKYO_LON TOKYO_GRADE TOKYO_WIND TOKYO_PRES TOKYO_R50_DIR TOKYO_R50_LONG TOKYO_R50_SHORT TOKYO_R30_DIR TOKYO_R30_LONG TOKYO_R30_SHORT TOKYO_LAND CMA_LAT CMA_LON CMA_CAT CMA_WIND CMA_PRES HKO_LAT HKO_LON HKO_CAT HKO_WIND HKO_PRES NEWDELHI_LAT NEWDELHI_LON NEWDELHI_GRADE NEWDELHI_WIND NEWDELHI_PRES NEWDELHI_CI NEWDELHI_DP NEWDELHI_POCI REUNION_LAT REUNION_LON REUNION_TYPE REUNION_WIND REUNION_PRES REUNION_TNUM REUNION_CI REUNION_RMW REUNION_R34_NE REUNION_R34_SE REUNION_R34_SW REUNION_R34_NW REUNION_R50_NE REUNION_R50_SE REUNION_R50_SW REUNION_R50_NW REUNION_R64_NE REUNION_R64_SE REUNION_R64_SW REUNION_R64_NW BOM_LAT BOM_LON BOM_TYPE BOM_WIND BOM_PRES BOM_TNUM BOM_CI BOM_RMW BOM_R34_NE BOM_R34_SE BOM_R34_SW BOM_R34_NW BOM_R50_NE BOM_R50_SE BOM_R50_SW BOM_R50_NW BOM_R64_NE BOM_R64_SE BOM_R64_SW BOM_R64_NW BOM_ROCI BOM_POCI BOM_EYE BOM_POS_METHOD BOM_PRES_METHOD NADI_LAT NADI_LON NADI_CAT NADI_WIND NADI_PRES WELLINGTON_LAT WELLINGTON_LON WELLINGTON_WIND WELLINGTON_PRES DS824_LAT DS824_LON DS824_STAGE DS824_WIND DS824_PRES TD9636_LAT TD9636_LON TD9636_STAGE TD9636_WIND TD9636_PRES TD9635_LAT TD9635_LON TD9635_WIND TD9635_PRES TD9635_ROCI NEUMANN_LAT NEUMANN_LON NEUMANN_CLASS NEUMANN_WIND NEUMANN_PRES MLC_LAT MLC_LON MLC_CLASS MLC_WIND MLC_PRES USA_GUST BOM_GUST BOM_GUST_PER REUNION_GUST REUNION_GUST_PER USA_SEAHGT USA_SEARAD_NE USA_SEARAD_SE USA_SEARAD_SW USA_SEARAD_NW STORM_SPEED STORM_DIR
1906300N16124 1906 50 WP MM NOT_NAMED 1906-10-27 04:00:00 NR 16.2000 124.100 main 187 139 __________O___ -1 16.2000 124.100 7 13 299
1906300N16124 1906 50 WP MM NOT_NAMED 1906-10-27 06:00:00 NR 16.4000 123.719 main 139 77 __________P___ -1 16.4000 123.719 7 12 299
1906300N16124 1906 50 WP MM NOT_NAMED 1906-10-27 09:00:00 NR 16.6994 123.153 main 77 10 __________P___ -1 16.6994 123.153 7 12 299
1906300N16124 1906 50 WP MM NOT_NAMED 1906-10-27 12:00:00 NR 16.9988 122.600 main 10 0 __________P___ -1 16.9988 122.600 7 12 300
1906300N16124 1906 50 WP MM NOT_NAMED 1906-10-27 15:00:00 NR 17.2994 122.070 main 0 0 __________P___ -1 17.2994 122.070 7 12 301
1906300N16124 1906 50 WP MM NOT_NAMED 1906-10-27 16:00:00 NR 17.4000 121.900 main 0 0 __________O___ -1 17.4000 121.900 7 11 302
1906300N16124 1906 50 WP MM NOT_NAMED 1906-10-27 18:00:00 NR 17.6021 121.571 main 0 0 __________P___ -1 17.6021 121.571 7 11 303
1906300N16124 1906 50 WP MM NOT_NAMED 1906-10-27 21:00:00 NR 17.9056 121.097 main 0 0 __________P___ -1 17.9056 121.097 7 11 304
1906300N16124 1906 50 WP MM NOT_NAMED 1906-10-28 00:00:00 NR 18.2070 120.632 main 0 0 __________P___ -1 18.2070 120.632 7 11 304
1906300N16124 1906 50 WP MM NOT_NAMED 1906-10-28 03:00:00 NR 18.5031 120.161 main 43 53 __________P___ -1 18.5031 120.161 7 11 303
1906300N16124 1906 50 WP MM NOT_NAMED 1906-10-28 04:00:00 NR 18.6000 120.000 main 67 67 __________O___ -1 18.6000 120.000 2 11 302
1906300N16124 1906 50 WP MM NOT_NAMED 1906-10-28 06:00:00 NR 18.7967 119.664 main 104 114 __________P___ -1 18.7967 119.664 2 11 301
1906300N16124 1906 50 WP MM NOT_NAMED 1906-10-28 09:00:00 NR 19.0857 119.147 main 176 176 __________P___ -1 19.0857 119.147 2 11 300
1906300N16124 1906 50 WP MM NOT_NAMED 1906-10-28 12:00:00 NR 19.3620 118.618 main 238 238 __________P___ -1 19.3620 118.618 2 11 298
1906300N16124 1906 50 WP MM NOT_NAMED 1906-10-28 15:00:00 NR 19.6194 118.081 main 295 295 __________P___ -1 19.6194 118.081 2 11 297
1906300N16124 1906 50 WP MM NOT_NAMED 1906-10-28 16:00:00 NR 19.7000 117.900 main 318 318 __________O___ -1 19.7000 117.900 2 11 295
1906300N16124 1906 50 WP MM NOT_NAMED 1906-10-28 18:00:00 NR 19.8556 117.531 main 351 315 __________P___ -1 19.8556 117.531 2 11 293
1906300N16124 1906 50 WP MM NOT_NAMED 1906-10-28 21:00:00 NR 20.0703 116.971 main 315 275 __________P___ -1 20.0703 116.971 2 11 291
1906300N16124 1906 50 WP MM NOT_NAMED 1906-10-29 00:00:00 NR 20.2653 116.415 main 275 256 __________P___ -1 20.2653 116.415 2 11 290
1906300N16124 1906 50 WP MM NOT_NAMED 1906-10-29 03:00:00 NR 20.4437 115.874 main 256 238 __________P___ -1 20.4437 115.874 2 11 289
1906300N16124 1906 50 WP MM NOT_NAMED 1906-10-29 04:00:00 NR 20.5000 115.700 main 238 218 __________O___ -1 20.5000 115.700 2 10 290
1906300N16124 1906 50 WP MM NOT_NAMED 1906-10-29 06:00:00 NR 20.6189 115.358 main 218 178 __________P___ -1 20.6189 115.358 2 10 290
1906300N16124 1906 50 WP MM NOT_NAMED 1906-10-29 09:00:00 NR 20.7852 114.864 main 178 156 __________P___ -1 20.7852 114.864 2 10 289
1906300N16124 1906 50 WP MM NOT_NAMED 1906-10-29 12:00:00 NR 20.9341 114.393 main 156 127 __________P___ -1 20.9341 114.393 2 9 288
1906300N16124 1906 50 WP MM NOT_NAMED 1906-10-29 15:00:00 NR 21.0624 113.945 main 127 121 __________P___ -1 21.0624 113.945 2 9 287
1906300N16124 1906 50 WP MM NOT_NAMED 1906-10-29 16:00:00 NR 21.1000 113.800 main 121 93 __________O___ -1 21.1000 113.800 2 8 285
1906300N16124 1906 50 WP MM NOT_NAMED 1906-10-29 18:00:00 NR 21.1672 113.518 main 93 67 __________P___ -1 21.1672 113.518 2 8 283
1906300N16124 1906 50 WP MM NOT_NAMED 1906-10-29 21:00:00 NR 21.2513 113.110 main 67 56 __________P___ -1 21.2513 113.110 2 8 282
1906300N16124 1906 50 WP MM NOT_NAMED 1906-10-30 00:00:00 NR 21.3204 112.716 main 56 33 __________P___ -1 21.3204 112.716 2 7 280
1906300N16124 1906 50 WP MM NOT_NAMED 1906-10-30 03:00:00 NR 21.3808 112.328 main 33 33 __________P___ -1 21.3808 112.328 2 7 279
1906300N16124 1906 50 WP MM NOT_NAMED 1906-10-30 04:00:00 NR 21.4000 112.200 main 33 __________O___ -1 21.4000 112.200 7 7 279

デジタル台風データ・検索

IBTrACS Databaseについて

本データベースは、米国NOAAが公開する1842年以降の世界の熱帯低気圧のベストトラックデータアーカイブInternational Best Track Archive for Climate Stewardship (IBTrACS)を、ウェブで閲覧しやすい形式に変換したものです。

最終更新日:2021-11-26